Time;durP1;ratioP1;P1;durP2;ratioP2;P2;SDS_P1;SDS_P2;PMS_P1;PMS_P2;Temp;Humidity;BMP_temperature;BMP_pressure;BME280_temperature;BME280_humidity;BME280_pressure;Samples;Min_cycle;Max_cycle;Signal;HPM_P1;HPM_P2
2023/04/19 00:00:11;;;;;;;12.15;7.72;;;;;;;;;;4940745;28;20813;-84
2023/04/19 00:02:38;;;;;;;11.55;7.80;;;;;;;;;;4940794;28;20990;-84
2023/04/19 00:05:05;;;;;;;11.77;7.65;;;;;;;;;;4946508;28;20438;-85
2023/04/19 00:07:31;;;;;;;10.38;7.47;;;;;;;;;;4991075;28;20430;-84
2023/04/19 00:10:00;;;;;;;10.70;7.63;;;;;;;;;;4975693;28;20406;-84
2023/04/19 00:12:26;;;;;;;10.75;7.68;;;;;;;;;;4960028;28;20455;-85
2023/04/19 00:14:52;;;;;;;10.38;7.55;;;;;;;;;;4959239;28;20499;-84
2023/04/19 00:17:20;;;;;;;11.95;7.35;;;;;;;;;;4958839;28;20429;-84
2023/04/19 00:19:46;;;;;;;10.77;7.10;;;;;;;;;;4943541;28;20775;-84
2023/04/19 00:22:12;;;;;;;10.52;7.65;;;;;;;;;;4972931;28;20418;-84
2023/04/19 00:24:39;;;;;;;12.87;7.60;;;;;;;;;;4946585;28;20576;-84
2023/04/19 00:27:05;;;;;;;10.85;7.70;;;;;;;;;;4965223;28;20418;-84
2023/04/19 00:29:31;;;;;;;10.10;7.32;;;;;;;;;;4959434;28;20426;-84
2023/04/19 00:31:57;;;;;;;10.68;7.80;;;;;;;;;;4964699;28;20438;-82
2023/04/19 00:34:23;;;;;;;10.02;7.22;;;;;;;;;;4974092;28;20410;-83
2023/04/19 00:36:49;;;;;;;11.63;8.00;;;;;;;;;;4945236;28;20429;-84
2023/04/19 00:39:16;;;;;;;11.63;7.68;;;;;;;;;;4949607;28;20410;-84
2023/04/19 00:41:42;;;;;;;11.83;7.40;;;;;;;;;;4960219;28;20414;-85
2023/04/19 00:44:08;;;;;;;11.50;7.72;;;;;;;;;;4967843;28;21005;-85
2023/04/19 00:46:37;;;;;;;11.65;7.75;;;;;;;;;;4950666;28;20429;-85
2023/04/19 00:49:04;;;;;;;11.23;7.28;;;;;;;;;;4966433;28;20507;-85
2023/04/19 00:51:30;;;;;;;11.93;7.95;;;;;;;;;;4958781;28;20441;-84
2023/04/19 00:53:57;;;;;;;12.05;7.82;;;;;;;;;;4936852;28;20444;-85
2023/04/19 00:56:28;;;;;;;11.45;7.85;;;;;;;;;;4957062;28;20449;-84
2023/04/19 00:58:55;;;;;;;11.77;8.07;;;;;;;;;;4948944;28;20423;-84
2023/04/19 01:01:27;;;;;;;11.30;8.05;;;;;;;;;;4960020;28;20755;-85
2023/04/19 01:04:00;;;;;;;10.77;8.10;;;;;;;;;;4959209;28;20433;-83
2023/04/19 01:06:32;;;;;;;13.35;8.15;;;;;;;;;;4958576;28;20430;-85
2023/04/19 01:09:13;;;;;;;12.40;8.50;;;;;;;;;;4954814;28;20423;-86
2023/04/19 01:12:07;;;;;;;10.52;7.93;;;;;;;;;;4936602;28;20437;-86
2023/04/19 01:14:39;;;;;;;13.02;8.63;;;;;;;;;;4918583;29;20957;-86
2023/04/19 01:17:17;;;;;;;11.90;7.93;;;;;;;;;;4919930;29;20957;-86
2023/04/19 01:20:04;;;;;;;11.23;8.20;;;;;;;;;;4938217;29;20485;-85
2023/04/19 01:22:34;;;;;;;13.23;8.25;;;;;;;;;;4920905;29;20420;-86
2023/04/19 01:25:08;;;;;;;11.80;8.60;;;;;;;;;;4930291;29;20406;-85
2023/04/19 01:27:40;;;;;;;10.63;8.20;;;;;;;;;;4923045;29;20770;-85
2023/04/19 01:30:07;;;;;;;14.25;8.68;;;;;;;;;;4937913;29;20429;-85
2023/04/19 01:32:38;;;;;;;13.10;8.50;;;;;;;;;;4934390;29;20406;-85
2023/04/19 01:35:22;;;;;;;14.05;8.80;;;;;;;;;;4931844;29;20962;-84
2023/04/19 01:37:54;;;;;;;12.30;8.50;;;;;;;;;;4914117;29;20791;-84
2023/04/19 01:40:51;;;;;;;12.80;9.60;;;;;;;;;;4919189;29;20419;-85
2023/04/19 01:43:51;;;;;;;15.98;9.80;;;;;;;;;;4896959;29;20771;-81
2023/04/19 01:46:57;;;;;;;;;;;;;;;;;;;;;
2023/04/19 01:49:38;;;;;;;14.27;10.63;;;;;;;;;;4887531;29;20565;-85
2023/04/19 01:52:12;;;;;;;14.52;10.48;;;;;;;;;;4874578;29;20443;-85
2023/04/19 01:54:46;;;;;;;15.45;10.98;;;;;;;;;;4956971;28;20506;-84
2023/04/19 01:57:15;;;;;;;13.88;10.68;;;;;;;;;;4969430;28;20422;-86
2023/04/19 02:00:02;;;;;;;16.50;12.10;;;;;;;;;;4978006;28;20418;-84
2023/04/19 02:02:31;;;;;;;17.38;11.88;;;;;;;;;;4979776;28;20430;-84
2023/04/19 02:04:57;;;;;;;17.65;12.02;;;;;;;;;;4970193;28;20443;-84
2023/04/19 02:07:29;;;;;;;16.80;12.07;;;;;;;;;;4968284;28;20431;-83
2023/04/19 02:09:58;;;;;;;17.92;12.00;;;;;;;;;;4982306;28;20408;-85
2023/04/19 02:12:32;;;;;;;15.80;12.40;;;;;;;;;;4969743;28;20738;-85
2023/04/19 02:15:00;;;;;;;18.23;12.90;;;;;;;;;;4960907;28;20932;-84
2023/04/19 02:17:27;;;;;;;18.42;13.40;;;;;;;;;;4977470;28;20476;-84
2023/04/19 02:19:53;;;;;;;19.58;13.00;;;;;;;;;;4976189;28;20426;-83
2023/04/19 02:22:19;;;;;;;21.60;13.55;;;;;;;;;;4966349;28;20423;-84
2023/04/19 02:24:46;;;;;;;18.90;13.10;;;;;;;;;;4958826;28;20422;-85
2023/04/19 02:27:18;;;;;;;19.00;13.82;;;;;;;;;;4964695;28;20465;-85
2023/04/19 02:29:45;;;;;;;18.83;13.90;;;;;;;;;;4983806;28;20453;-85
2023/04/19 02:32:14;;;;;;;18.35;13.10;;;;;;;;;;4978589;28;20485;-83
2023/04/19 02:34:40;;;;;;;20.50;13.50;;;;;;;;;;4962790;28;20886;-84
2023/04/19 02:37:06;;;;;;;20.27;13.65;;;;;;;;;;4962435;28;20430;-84
2023/04/19 02:39:33;;;;;;;17.52;13.77;;;;;;;;;;4962176;28;20418;-84
2023/04/19 02:42:00;;;;;;;19.55;13.35;;;;;;;;;;4962669;28;20524;-84
2023/04/19 02:44:27;;;;;;;18.42;13.18;;;;;;;;;;4949389;28;20418;-84
2023/04/19 02:46:57;;;;;;;21.02;12.93;;;;;;;;;;4986169;28;20428;-85
2023/04/19 02:49:24;;;;;;;17.55;12.82;;;;;;;;;;4990574;28;20465;-84
2023/04/19 02:51:53;;;;;;;18.25;12.52;;;;;;;;;;5003579;28;20418;-84
2023/04/19 02:54:23;;;;;;;17.80;12.43;;;;;;;;;;4970323;28;20398;-84
2023/04/19 02:56:49;;;;;;;19.25;12.85;;;;;;;;;;4954923;28;20430;-83
2023/04/19 02:59:16;;;;;;;16.35;12.38;;;;;;;;;;4956929;28;20431;-84
2023/04/19 03:01:42;;;;;;;16.90;12.02;;;;;;;;;;4980762;28;20458;-84
2023/04/19 03:04:08;;;;;;;16.48;11.63;;;;;;;;;;4992221;28;20447;-84
2023/04/19 03:06:35;;;;;;;19.83;11.90;;;;;;;;;;4953028;28;20410;-84
2023/04/19 03:09:03;;;;;;;15.80;11.33;;;;;;;;;;4964377;28;20436;-84
2023/04/19 03:11:29;;;;;;;17.08;11.25;;;;;;;;;;4985039;28;20951;-84
2023/04/19 03:13:57;;;;;;;14.60;10.70;;;;;;;;;;4975450;28;20403;-83
2023/04/19 03:16:23;;;;;;;13.88;9.45;;;;;;;;;;4978099;28;20402;-83
2023/04/19 03:18:49;;;;;;;13.50;10.05;;;;;;;;;;4969565;28;20419;-82
2023/04/19 03:21:18;;;;;;;15.98;9.68;;;;;;;;;;4976918;28;20462;-83
2023/04/19 03:23:44;;;;;;;15.23;8.98;;;;;;;;;;4977849;28;20505;-82
2023/04/19 03:26:11;;;;;;;12.60;8.27;;;;;;;;;;4993786;28;20438;-84
2023/04/19 03:28:37;;;;;;;13.25;8.90;;;;;;;;;;4969000;28;20487;-84
2023/04/19 03:31:03;;;;;;;13.50;8.50;;;;;;;;;;4960712;28;20468;-83
2023/04/19 03:33:29;;;;;;;11.50;8.32;;;;;;;;;;4969734;28;20434;-84
2023/04/19 03:35:59;;;;;;;12.52;8.63;;;;;;;;;;4961766;28;20904;-84
2023/04/19 03:38:25;;;;;;;13.65;8.90;;;;;;;;;;4958208;28;20430;-85
2023/04/19 03:40:56;;;;;;;12.93;8.30;;;;;;;;;;4958146;28;20492;-84
2023/04/19 03:43:23;;;;;;;11.88;8.65;;;;;;;;;;4941008;28;20432;-84
2023/04/19 03:45:49;;;;;;;12.48;8.50;;;;;;;;;;4956735;28;20492;-83
2023/04/19 03:48:21;;;;;;;12.85;8.40;;;;;;;;;;4971660;28;20409;-83
2023/04/19 03:50:48;;;;;;;12.25;8.55;;;;;;;;;;4944822;28;20437;-83
2023/04/19 03:53:14;;;;;;;12.85;8.70;;;;;;;;;;4930128;28;20428;-82
2023/04/19 03:55:40;;;;;;;12.70;8.83;;;;;;;;;;4957603;28;20856;-84
2023/04/19 03:58:13;;;;;;;12.93;8.52;;;;;;;;;;4964329;28;20424;-84
2023/04/19 04:00:39;;;;;;;12.60;8.50;;;;;;;;;;4973139;28;20422;-83
2023/04/19 04:03:05;;;;;;;12.45;7.97;;;;;;;;;;4961156;28;20410;-84
2023/04/19 04:05:32;;;;;;;11.88;8.00;;;;;;;;;;4963136;28;20423;-84
2023/04/19 04:08:01;;;;;;;12.32;8.40;;;;;;;;;;4960220;28;20430;-84
2023/04/19 04:10:27;;;;;;;12.18;8.43;;;;;;;;;;4972991;28;20777;-85
2023/04/19 04:12:59;;;;;;;11.70;8.03;;;;;;;;;;4981104;28;20401;-85
2023/04/19 04:15:34;;;;;;;12.50;8.55;;;;;;;;;;4964162;28;20411;-85
2023/04/19 04:18:04;;;;;;;11.73;8.25;;;;;;;;;;4970463;28;20404;-85
2023/04/19 04:20:40;;;;;;;11.68;8.55;;;;;;;;;;4973515;28;20416;-85
2023/04/19 04:23:09;;;;;;;12.85;8.48;;;;;;;;;;4964886;28;20794;-84
2023/04/19 04:25:41;;;;;;;13.32;8.70;;;;;;;;;;4960700;28;20473;-84
2023/04/19 04:28:08;;;;;;;12.75;8.45;;;;;;;;;;4961561;28;20493;-85
2023/04/19 04:30:35;;;;;;;13.77;9.00;;;;;;;;;;4961197;28;20434;-83
2023/04/19 04:33:01;;;;;;;12.30;8.70;;;;;;;;;;4975941;28;20422;-85
2023/04/19 04:35:30;;;;;;;12.95;9.00;;;;;;;;;;4944414;28;20442;-85
2023/04/19 04:37:57;;;;;;;15.17;8.90;;;;;;;;;;4966992;28;21014;-84
2023/04/19 04:40:24;;;;;;;13.13;8.75;;;;;;;;;;4971529;28;20405;-84
2023/04/19 04:42:51;;;;;;;14.13;8.82;;;;;;;;;;4980143;28;20417;-84
2023/04/19 04:45:21;;;;;;;11.87;8.53;;;;;;;;;;4977674;28;20536;-84
2023/04/19 04:47:47;;;;;;;11.55;8.48;;;;;;;;;;4977896;28;20498;-84
2023/04/19 04:50:13;;;;;;;12.93;8.40;;;;;;;;;;4974685;28;20493;-83
2023/04/19 04:52:42;;;;;;;13.63;8.65;;;;;;;;;;4968319;28;20430;-84
2023/04/19 04:55:09;;;;;;;13.20;8.25;;;;;;;;;;4986658;28;20753;-83
2023/04/19 04:57:40;;;;;;;13.48;8.30;;;;;;;;;;4961385;28;20414;-83
2023/04/19 05:00:25;;;;;;;12.00;8.00;;;;;;;;;;4953009;28;20473;-84
2023/04/19 05:02:51;;;;;;;11.93;8.48;;;;;;;;;;4962950;28;20416;-84
2023/04/19 05:05:18;;;;;;;11.98;8.48;;;;;;;;;;4983138;28;20427;-84
2023/04/19 05:07:44;;;;;;;11.15;7.93;;;;;;;;;;4967248;28;20430;-83
2023/04/19 05:10:11;;;;;;;13.75;8.02;;;;;;;;;;4963783;28;20874;-80
2023/04/19 05:12:37;;;;;;;11.45;8.48;;;;;;;;;;4969899;28;20490;-83
2023/04/19 05:15:03;;;;;;;11.52;8.05;;;;;;;;;;4963816;28;20407;-83
2023/04/19 05:17:30;;;;;;;11.27;7.60;;;;;;;;;;4976546;28;20442;-84
2023/04/19 05:19:56;;;;;;;12.33;8.13;;;;;;;;;;4977025;28;20923;-82
2023/04/19 05:22:28;;;;;;;12.38;7.85;;;;;;;;;;4944313;28;20426;-85
2023/04/19 05:24:55;;;;;;;14.30;7.68;;;;;;;;;;4968202;28;20433;-84
2023/04/19 05:27:21;;;;;;;12.32;7.45;;;;;;;;;;4966560;28;20437;-85
2023/04/19 05:29:47;;;;;;;12.23;7.60;;;;;;;;;;4960376;28;20917;-85
2023/04/19 05:32:13;;;;;;;12.25;7.45;;;;;;;;;;4978437;28;21038;-85
2023/04/19 05:34:39;;;;;;;13.45;7.07;;;;;;;;;;4977011;28;20931;-84
2023/04/19 05:37:06;;;;;;;12.68;7.43;;;;;;;;;;4951424;28;20485;-81
2023/04/19 05:39:32;;;;;;;14.73;7.30;;;;;;;;;;4980554;28;20418;-85
2023/04/19 05:42:00;;;;;;;9.88;6.47;;;;;;;;;;4980586;28;20418;-85
2023/04/19 05:44:26;;;;;;;11.13;6.93;;;;;;;;;;4962092;28;20454;-85
2023/04/19 05:46:53;;;;;;;11.43;6.20;;;;;;;;;;4961292;28;20482;-84
2023/04/19 05:49:19;;;;;;;10.00;6.57;;;;;;;;;;4979262;28;20487;-84
2023/04/19 05:51:45;;;;;;;9.38;5.97;;;;;;;;;;4969961;28;20429;-83
2023/04/19 05:54:13;;;;;;;11.50;6.35;;;;;;;;;;4971534;28;20430;-83
2023/04/19 05:56:39;;;;;;;8.88;5.57;;;;;;;;;;4955189;28;20416;-82
2023/04/19 05:59:06;;;;;;;9.53;5.33;;;;;;;;;;4969692;28;20426;-83
2023/04/19 06:01:32;;;;;;;10.75;5.40;;;;;;;;;;4978617;28;20909;-84
2023/04/19 06:03:58;;;;;;;8.63;5.07;;;;;;;;;;4978794;28;20442;-85
2023/04/19 06:06:24;;;;;;;9.90;5.13;;;;;;;;;;4979290;28;20411;-83
2023/04/19 06:08:50;;;;;;;9.02;5.28;;;;;;;;;;4962355;28;20944;-83
2023/04/19 06:11:16;;;;;;;6.80;4.70;;;;;;;;;;4966971;28;20427;-84
2023/04/19 06:13:43;;;;;;;8.93;5.18;;;;;;;;;;4992122;28;20426;-83
2023/04/19 06:16:11;;;;;;;7.60;4.80;;;;;;;;;;4960004;28;20428;-84
2023/04/19 06:18:38;;;;;;;9.15;4.53;;;;;;;;;;4986687;28;20913;-82
2023/04/19 06:21:05;;;;;;;6.95;4.60;;;;;;;;;;4951160;28;20734;-85
2023/04/19 06:23:37;;;;;;;8.43;4.50;;;;;;;;;;4971464;28;20793;-84
2023/04/19 06:26:05;;;;;;;7.25;4.30;;;;;;;;;;4952063;28;20423;-84
2023/04/19 06:28:31;;;;;;;8.48;4.43;;;;;;;;;;4927446;28;20439;-85
2023/04/19 06:31:01;;;;;;;5.40;3.97;;;;;;;;;;4945863;28;20491;-81
2023/04/19 06:33:27;;;;;;;7.43;3.57;;;;;;;;;;4937021;28;20939;-85
2023/04/19 06:35:54;;;;;;;6.22;4.20;;;;;;;;;;4967756;28;20483;-84
2023/04/19 06:38:22;;;;;;;7.32;4.30;;;;;;;;;;4953639;28;20957;-85
2023/04/19 06:40:49;;;;;;;6.90;4.00;;;;;;;;;;4948911;28;20453;-84
2023/04/19 06:43:15;;;;;;;6.93;4.50;;;;;;;;;;4932824;28;20529;-85
2023/04/19 06:45:41;;;;;;;7.05;4.00;;;;;;;;;;4954016;28;20427;-87
2023/04/19 06:48:08;;;;;;;7.53;4.10;;;;;;;;;;4962234;28;20494;-85
2023/04/19 06:50:37;;;;;;;6.97;4.10;;;;;;;;;;4935966;28;20440;-85
2023/04/19 06:53:03;;;;;;;6.33;3.87;;;;;;;;;;4939732;28;20437;-85
2023/04/19 06:55:29;;;;;;;5.00;3.33;;;;;;;;;;4952714;29;20465;-85
2023/04/19 06:57:59;;;;;;;7.40;3.70;;;;;;;;;;4968114;28;20909;-84
2023/04/19 07:00:27;;;;;;;6.50;3.30;;;;;;;;;;4947847;28;20458;-83
2023/04/19 07:02:54;;;;;;;6.70;3.50;;;;;;;;;;4973829;28;20921;-85
2023/04/19 07:05:23;;;;;;;5.32;3.22;;;;;;;;;;4974482;28;20458;-85
2023/04/19 07:07:50;;;;;;;5.63;3.10;;;;;;;;;;4961718;28;20447;-85
2023/04/19 07:10:16;;;;;;;6.72;3.15;;;;;;;;;;4955111;28;20432;-84
2023/04/19 07:12:42;;;;;;;6.40;3.00;;;;;;;;;;4990425;28;20426;-85
2023/04/19 07:15:11;;;;;;;5.35;3.22;;;;;;;;;;4972603;28;20480;-85
2023/04/19 07:17:38;;;;;;;5.07;2.85;;;;;;;;;;4952748;28;20427;-84
2023/04/19 07:20:05;;;;;;;5.68;3.03;;;;;;;;;;4985769;28;20418;-84
2023/04/19 07:22:31;;;;;;;9.15;2.70;;;;;;;;;;4973455;28;23370;-85
2023/04/19 07:24:58;;;;;;;6.03;2.60;;;;;;;;;;4962490;28;20422;-86
2023/04/19 07:27:27;;;;;;;4.60;2.70;;;;;;;;;;4960804;28;20426;-85
2023/04/19 07:29:53;;;;;;;6.10;2.40;;;;;;;;;;4975339;28;20446;-86
2023/04/19 07:32:22;;;;;;;5.30;2.72;;;;;;;;;;4957727;28;20446;-85
2023/04/19 07:34:50;;;;;;;4.15;2.58;;;;;;;;;;4989936;28;20564;-85
2023/04/19 07:37:19;;;;;;;4.40;2.60;;;;;;;;;;4976216;28;20414;-85
2023/04/19 07:39:48;;;;;;;4.53;2.58;;;;;;;;;;4956328;28;20432;-86
2023/04/19 07:42:14;;;;;;;4.38;2.55;;;;;;;;;;4977261;28;20438;-85
2023/04/19 07:44:40;;;;;;;5.72;2.92;;;;;;;;;;4981321;28;20434;-84
2023/04/19 07:47:06;;;;;;;6.05;3.00;;;;;;;;;;4960592;28;20517;-85
2023/04/19 07:49:32;;;;;;;6.00;2.90;;;;;;;;;;4964519;28;20929;-84
2023/04/19 07:52:00;;;;;;;5.97;2.85;;;;;;;;;;4980226;28;20505;-85
2023/04/19 07:54:26;;;;;;;6.68;3.00;;;;;;;;;;4966546;28;20424;-84
2023/04/19 07:56:52;;;;;;;4.53;2.92;;;;;;;;;;4955522;28;20422;-84
2023/04/19 07:59:18;;;;;;;6.72;2.80;;;;;;;;;;4956856;28;20813;-85
2023/04/19 08:01:45;;;;;;;5.28;2.80;;;;;;;;;;4965578;28;20412;-85
2023/04/19 08:04:11;;;;;;;4.55;2.50;;;;;;;;;;4960859;28;20459;-85
2023/04/19 08:06:40;;;;;;;6.00;2.90;;;;;;;;;;4974539;28;20426;-84
2023/04/19 08:09:06;;;;;;;5.60;2.45;;;;;;;;;;4956406;28;20445;-84
2023/04/19 08:11:32;;;;;;;6.35;3.00;;;;;;;;;;4975706;28;20565;-84
2023/04/19 08:13:59;;;;;;;5.45;2.72;;;;;;;;;;4955482;28;20418;-84
2023/04/19 08:16:26;;;;;;;6.07;2.97;;;;;;;;;;4954675;28;20510;-84
2023/04/19 08:18:56;;;;;;;4.17;2.70;;;;;;;;;;4971048;28;20519;-83
2023/04/19 08:21:22;;;;;;;5.40;3.15;;;;;;;;;;4990700;28;20424;-84
2023/04/19 08:23:48;;;;;;;4.63;2.50;;;;;;;;;;4982500;28;20409;-85
2023/04/19 08:26:14;;;;;;;4.28;2.80;;;;;;;;;;4979242;28;20438;-85
2023/04/19 08:28:40;;;;;;;5.97;3.08;;;;;;;;;;4974732;28;20434;-85
2023/04/19 08:31:06;;;;;;;5.72;2.80;;;;;;;;;;4990812;28;21139;-86
2023/04/19 08:33:33;;;;;;;6.00;2.90;;;;;;;;;;4996845;28;20416;-86
2023/04/19 08:35:59;;;;;;;4.72;2.88;;;;;;;;;;4968673;28;20430;-85
2023/04/19 08:38:25;;;;;;;4.63;3.10;;;;;;;;;;4958994;28;20503;-86
2023/04/19 08:40:53;;;;;;;5.60;2.90;;;;;;;;;;4982723;28;20418;-84
2023/04/19 08:43:20;;;;;;;4.50;2.92;;;;;;;;;;4984257;28;20432;-84
2023/04/19 08:45:47;;;;;;;4.90;3.07;;;;;;;;;;4981559;28;20472;-85
2023/04/19 08:48:14;;;;;;;5.63;3.10;;;;;;;;;;4971213;28;20412;-80
2023/04/19 08:50:41;;;;;;;10.85;3.03;;;;;;;;;;4982828;28;20424;-83
2023/04/19 08:53:10;;;;;;;4.95;2.78;;;;;;;;;;5003681;28;20422;-87
2023/04/19 08:55:37;;;;;;;6.47;3.07;;;;;;;;;;4978896;28;20473;-83
2023/04/19 08:58:04;;;;;;;5.45;2.65;;;;;;;;;;4980764;28;20414;-83
2023/04/19 09:00:35;;;;;;;4.82;2.78;;;;;;;;;;4959410;28;20423;-84
2023/04/19 09:03:01;;;;;;;6.50;2.75;;;;;;;;;;4972243;28;20424;-83
2023/04/19 09:05:27;;;;;;;4.63;2.83;;;;;;;;;;4967753;28;20921;-84
2023/04/19 09:07:53;;;;;;;4.75;2.53;;;;;;;;;;4969192;28;20495;-83
2023/04/19 09:10:20;;;;;;;5.22;2.83;;;;;;;;;;4982691;28;20435;-83
2023/04/19 09:13:03;;;;;;;5.68;2.78;;;;;;;;;;4977340;28;20422;-84
2023/04/19 09:15:37;;;;;;;6.38;2.65;;;;;;;;;;4974385;28;20430;-85
2023/04/19 09:18:05;;;;;;;5.43;2.45;;;;;;;;;;4971313;28;20490;-86
2023/04/19 09:20:38;;;;;;;5.05;2.80;;;;;;;;;;4977350;28;20433;-86
2023/04/19 09:23:06;;;;;;;4.97;2.60;;;;;;;;;;4961263;28;20449;-85
2023/04/19 09:25:32;;;;;;;4.43;2.55;;;;;;;;;;4974527;28;20428;-84
2023/04/19 09:28:14;;;;;;;6.63;2.40;;;;;;;;;;4975512;28;20425;-84
2023/04/19 09:30:40;;;;;;;4.25;2.50;;;;;;;;;;4974687;28;20455;-82
2023/04/19 09:33:07;;;;;;;5.03;2.50;;;;;;;;;;4984862;28;20427;-82
2023/04/19 09:35:40;;;;;;;5.50;2.35;;;;;;;;;;4960694;28;20831;-82
2023/04/19 09:38:06;;;;;;;3.75;2.28;;;;;;;;;;4960878;28;20418;-84
2023/04/19 09:40:32;;;;;;;4.45;2.38;;;;;;;;;;4962245;28;20497;-84
2023/04/19 09:42:58;;;;;;;4.28;2.50;;;;;;;;;;4960149;28;20414;-84
2023/04/19 09:45:26;;;;;;;4.72;2.30;;;13.60;99.90;;;;;;4974859;28;20433;-84
2023/04/19 09:48:00;;;;;;;5.65;2.30;;;;;;;;;;4944852;28;20416;-83
2023/04/19 09:50:26;;;;;;;4.47;2.15;;;;;;;;;;4991134;28;20410;-84
2023/04/19 09:52:52;;;;;;;4.32;2.40;;;;;;;;;;4963263;28;20406;-85
2023/04/19 09:55:19;;;;;;;4.45;2.10;;;;;;;;;;4958722;28;20467;-85
2023/04/19 09:57:45;;;;;;;3.70;1.92;;;;;;;;;;4962191;28;20469;-85
2023/04/19 10:00:14;;;;;;;3.95;1.85;;;;;;;;;;4980850;28;20434;-86
2023/04/19 10:02:40;;;;;;;6.30;1.80;;;;;;;;;;4957682;28;20422;-82
2023/04/19 10:05:08;;;;;;;4.00;1.88;;;;;;;;;;4958671;28;20461;-85
2023/04/19 10:07:35;;;;;;;12.05;2.08;;;;;;;;;;4958757;28;20521;-85
2023/04/19 10:10:02;;;;;;;6.60;2.08;;;;;;;;;;4974681;28;20454;-85
2023/04/19 10:12:29;;;;;;;6.15;1.73;;;;;;;;;;4962106;28;20782;-85
2023/04/19 10:14:56;;;;;;;5.90;1.85;;;;;;;;;;4959869;28;20428;-85
2023/04/19 10:17:23;;;;;;;5.50;1.73;;;;;;;;;;4988724;28;20488;-85
2023/04/19 10:19:52;;;;;;;4.78;1.70;;;;;;;;;;4987473;28;20454;-85
2023/04/19 10:22:18;;;;;;;4.32;1.88;;;;;;;;;;4969954;28;20405;-86
2023/04/19 10:25:16;;;;;;;6.57;1.77;;;;;;;;;;4964066;28;20434;-83
2023/04/19 10:27:45;;;;;;;3.30;1.60;;;;;;;;;;4988602;28;20434;-85
2023/04/19 10:30:21;;;;;;;4.35;1.80;;;;;;;;;;4962404;28;20433;-83
2023/04/19 10:32:52;;;;;;;6.03;1.60;;;;;;;;;;4964130;28;20410;-84
2023/04/19 10:35:43;;;;;;;3.97;1.50;;;14.10;99.90;;;;;;4960598;28;20425;-84
2023/04/19 10:38:15;;;;;;;4.63;1.70;;;;;;;;;;4973873;28;20578;-86
2023/04/19 10:40:51;;;;;;;4.28;1.42;;;;;;;;;;4976256;28;20422;-85
2023/04/19 10:43:17;;;;;;;3.67;1.73;;;;;;;;;;4953438;28;20415;-86
2023/04/19 10:45:44;;;;;;;5.75;1.70;;;;;;;;;;4978576;28;20432;-85
2023/04/19 10:48:42;;;;;;;3.50;1.80;;;;;;;;;;4995627;28;20427;-85
2023/04/19 10:51:15;;;;;;;5.78;1.60;;;;;;;;;;4961607;28;20429;-86
2023/04/19 10:53:48;;;;;;;2.53;1.50;;;;;;;;;;4974907;28;20446;-85
2023/04/19 10:56:22;;;;;;;3.83;1.48;;;;;;;;;;4972854;28;20429;-85
2023/04/19 10:59:06;;;;;;;3.80;1.50;;;;;;;;;;4970796;28;20487;-85
2023/04/19 11:01:36;;;;;;;3.65;1.65;;;;;;;;;;4958396;28;20431;-85
2023/04/19 11:04:03;;;;;;;2.92;1.60;;;;;;;;;;4967309;28;20426;-85
2023/04/19 11:06:29;;;;;;;4.13;1.42;;;;;;;;;;4959220;28;20434;-85
2023/04/19 11:08:56;;;;;;;4.57;1.50;;;;;;;;;;4975778;28;20437;-84
2023/04/19 11:11:24;;;;;;;4.13;1.67;;;;;;;;;;4960325;28;20480;-85
2023/04/19 11:13:50;;;;;;;3.47;1.45;;;;;;;;;;4976387;28;20418;-84
2023/04/19 11:16:16;;;;;;;3.80;1.55;;;;;;;;;;4975500;28;20512;-84
2023/04/19 11:18:43;;;;;;;3.10;1.67;;;14.80;99.90;;;;;;4976072;28;20426;-84
2023/04/19 11:21:15;;;;;;;3.75;1.50;;;;;;;;;;4975941;28;20441;-85
2023/04/19 11:23:42;;;;;;;2.90;1.40;;;;;;;;;;4960580;28;20441;-85
2023/04/19 11:26:11;;;;;;;4.07;1.52;;;;;;;;;;4984742;28;20412;-81
2023/04/19 11:28:38;;;;;;;5.95;1.70;;;;;;;;;;4969190;28;20439;-84
2023/04/19 11:31:04;;;;;;;4.40;1.60;;;;;;;;;;4956659;28;20512;-85
2023/04/19 11:33:34;;;;;;;4.63;1.58;;;;;;;;;;4946919;28;20473;-86
2023/04/19 11:36:03;;;;;;;4.10;1.65;;;;;;;;;;4960996;28;20977;-85
2023/04/19 11:38:35;;;;;;;4.17;1.53;;;;;;;;;;4976979;28;20436;-85
2023/04/19 11:41:04;;;;;;;3.90;1.50;;;;;;;;;;4962488;28;20939;-85
2023/04/19 11:43:37;;;;;;;3.13;1.50;;;;;;;;;;4985834;28;20502;-85
2023/04/19 11:46:06;;;;;;;8.43;1.90;;;;;;;;;;4960247;28;21042;-85
2023/04/19 11:48:36;;;;;;;7.25;2.22;;;;;;;;;;4972203;28;20959;-84
2023/04/19 11:51:02;;;;;;;4.68;1.50;;;;;;;;;;4991387;28;20445;-83
2023/04/19 11:53:30;;;;;;;4.72;1.90;;;;;;;;;;4962947;28;20413;-84
2023/04/19 11:56:03;;;;;;;3.38;1.73;;;;;;;;;;4977437;28;20414;-84
2023/04/19 11:58:43;;;;;;;3.95;1.80;;;;;;;;;;4972587;28;20428;-85
2023/04/19 12:01:10;;;;;;;3.42;1.90;;;;;;;;;;4964661;28;20733;-84
2023/04/19 12:03:48;;;;;;;5.38;1.80;;;;;;;;;;4976149;28;20990;-84
2023/04/19 12:06:15;;;;;;;7.20;2.20;;;;;;;;;;4973365;28;20479;-86
2023/04/19 12:08:46;;;;;;;6.05;1.90;;;15.30;99.40;;;;;;4966010;28;20572;-86
2023/04/19 12:11:12;;;;;;;4.35;1.90;;;;;;;;;;4948891;29;20951;-86
2023/04/19 12:13:43;;;;;;;5.05;1.80;;;;;;;;;;4979658;28;20410;-84
2023/04/19 12:16:09;;;;;;;3.35;2.10;;;;;;;;;;4953336;28;20441;-84
2023/04/19 12:18:47;;;;;;;5.07;2.17;;;;;;;;;;4970483;28;20437;-85
2023/04/19 12:21:33;;;;;;;4.50;2.30;;;15.00;98.30;;;;;;4986384;28;20414;-84
2023/04/19 12:24:00;;;;;;;6.25;2.45;;;;;;;;;;4952412;28;20423;-85
2023/04/19 12:26:27;;;;;;;4.72;2.20;;;15.30;98.80;;;;;;4973223;28;20507;-85
2023/04/19 12:28:57;;;;;;;3.95;2.08;;;15.30;98.70;;;;;;4946232;28;20418;-84
2023/04/19 12:31:24;;;;;;;5.47;2.65;;;;;;;;;;4954224;29;20434;-84
2023/04/19 12:33:51;;;;;;;5.10;2.40;;;;;;;;;;4938072;28;20410;-85
2023/04/19 12:36:17;;;;;;;5.00;2.30;;;;;;;;;;4962501;28;20426;-84
2023/04/19 12:38:43;;;;;;;5.53;2.50;;;;;;;;;;4969803;28;20523;-85
2023/04/19 12:41:09;;;;;;;5.22;2.20;;;;;;;;;;4963590;28;20427;-84
2023/04/19 12:43:35;;;;;;;5.47;2.40;;;;;;;;;;4965721;28;20427;-84
2023/04/19 12:46:01;;;;;;;3.60;2.10;;;;;;;;;;4955467;28;20430;-82
2023/04/19 12:48:27;;;;;;;5.32;2.70;;;;;;;;;;4976993;28;20945;-83
2023/04/19 12:50:54;;;;;;;5.03;2.53;;;;;;;;;;4967912;28;20616;-83
2023/04/19 12:53:23;;;;;;;4.95;2.50;;;;;;;;;;4947318;29;20425;-84
2023/04/19 12:55:49;;;;;;;6.00;2.50;;;;;;;;;;4965910;28;20424;-83
2023/04/19 12:58:19;;;;;;;4.32;2.42;;;;;;;;;;4953224;28;20439;-84
2023/04/19 13:00:45;;;;;;;4.20;2.33;;;;;;;;;;4966988;28;20444;-84
2023/04/19 13:03:12;;;;;;;6.75;2.40;;;;;;;;;;4985998;28;20779;-83
2023/04/19 13:05:38;;;;;;;5.15;2.60;;;;;;;;;;4975840;28;20440;-83
2023/04/19 13:08:04;;;;;;;5.90;2.90;;;;;;;;;;4944304;28;20422;-83
2023/04/19 13:10:30;;;;;;;4.72;2.50;;;;;;;;;;4957857;28;20502;-83
2023/04/19 13:12:58;;;;;;;4.45;2.40;;;;;;;;;;4970615;28;20422;-84
2023/04/19 13:15:24;;;;;;;5.78;3.08;;;;;;;;;;4972617;28;21096;-84
2023/04/19 13:17:50;;;;;;;5.10;3.08;;;;;;;;;;4954730;28;20436;-83
2023/04/19 13:20:18;;;;;;;5.22;2.63;;;15.70;98.70;;;;;;4946938;28;20920;-84
2023/04/19 13:22:44;;;;;;;4.13;2.53;;;;;;;;;;4973138;28;20568;-84
2023/04/19 13:25:11;;;;;;;5.65;2.80;;;;;;;;;;4962134;28;20474;-83
2023/04/19 13:27:37;;;;;;;7.17;2.67;;;;;;;;;;4953788;28;20438;-84
2023/04/19 13:30:03;;;;;;;4.80;2.90;;;;;;;;;;4979898;28;20421;-85
2023/04/19 13:32:29;;;;;;;4.93;2.80;;;;;;;;;;4987913;28;20440;-85
2023/04/19 13:34:55;;;;;;;5.55;2.92;;;;;;;;;;4954486;28;20722;-84
2023/04/19 13:37:21;;;;;;;7.50;3.00;;;;;;;;;;4968331;28;21342;-84
2023/04/19 13:39:47;;;;;;;5.10;2.93;;;;;;;;;;4973969;28;20408;-84
2023/04/19 13:42:13;;;;;;;7.22;3.38;;;;;;;;;;4972429;28;20414;-84
2023/04/19 13:44:40;;;;;;;9.52;3.17;;;;;;;;;;4980220;28;20751;-82
2023/04/19 13:47:06;;;;;;;5.20;3.28;;;;;;;;;;4965016;28;20423;-82
2023/04/19 13:49:32;;;;;;;5.35;2.95;;;;;;;;;;4952284;29;20442;-82
2023/04/19 13:51:58;;;;;;;6.43;3.10;;;;;;;;;;4960685;28;20443;-82
2023/04/19 13:54:24;;;;;;;6.13;3.30;;;;;;;;;;4966220;28;20470;-81
2023/04/19 13:56:50;;;;;;;10.00;3.92;;;;;;;;;;4987805;28;20954;-84
2023/04/19 13:59:17;;;;;;;7.85;3.70;;;;;;;;;;4960567;28;20943;-83
2023/04/19 14:01:43;;;;;;;6.20;3.93;;;;;;;;;;4962644;28;20431;-83
2023/04/19 14:04:11;;;;;;;5.50;3.75;;;;;;;;;;4965134;28;20444;-84
2023/04/19 14:06:37;;;;;;;6.90;3.70;;;;;;;;;;4970605;28;20980;-83
2023/04/19 14:09:03;;;;;;;5.77;3.40;;;;;;;;;;4977567;28;20520;-82
2023/04/19 14:11:30;;;;;;;6.18;3.55;;;;;;;;;;4963282;28;20442;-83
2023/04/19 14:13:56;;;;;;;7.95;4.00;;;;;;;;;;4955779;28;20493;-82
2023/04/19 14:16:24;;;;;;;7.00;3.80;;;;;;;;;;4972978;28;20428;-82
2023/04/19 14:18:50;;;;;;;7.57;4.07;;;;;;;;;;4967878;28;20426;-82
2023/04/19 14:21:16;;;;;;;7.70;4.20;;;;;;;;;;4951573;28;20439;-82
2023/04/19 14:23:42;;;;;;;7.13;3.90;;;;;;;;;;4990341;28;20407;-83
2023/04/19 14:26:08;;;;;;;7.37;4.40;;;;;;;;;;4985092;28;20464;-83
2023/04/19 14:28:34;;;;;;;7.80;4.00;;;;;;;;;;4991619;28;20406;-83
2023/04/19 14:31:00;;;;;;;8.52;4.00;;;;;;;;;;4974805;28;20438;-82
2023/04/19 14:33:26;;;;;;;7.90;3.78;;;;;;;;;;4961939;28;20907;-83
2023/04/19 14:35:53;;;;;;;9.77;4.00;;;;;;;;;;4985683;28;20447;-82
2023/04/19 14:38:19;;;;;;;7.32;3.92;;;;;;;;;;4965897;28;20429;-83
2023/04/19 14:40:45;;;;;;;8.07;4.15;;;;;;;;;;4976659;28;20424;-83